createdAt,value
2018-09-22T00:00:28.183Z,46222.20
2018-09-22T00:02:32.999Z,46230.91
2018-09-22T00:04:37.762Z,46229.94
2018-09-22T00:06:42.579Z,46240.59
2018-09-22T00:08:47.322Z,46234.78
2018-09-22T00:10:52.032Z,46227.04
2018-09-22T00:12:56.805Z,46221.23
2018-09-22T00:15:01.479Z,46216.39
2018-09-22T00:17:06.393Z,46234.78
2018-09-22T00:19:11.233Z,46227.04
2018-09-22T00:21:15.954Z,46219.30
2018-09-22T00:23:20.618Z,46211.55
2018-09-22T00:25:25.288Z,46231.87
2018-09-22T00:27:30.053Z,46215.43
2018-09-22T00:29:34.766Z,46210.59
2018-09-22T00:31:39.525Z,46221.23
2018-09-22T00:33:44.239Z,46231.87
2018-09-22T00:35:49.095Z,46205.75
2018-09-22T00:37:54.050Z,46224.13
2018-09-22T00:40:04.860Z,46221.23
2018-09-22T00:42:09.668Z,46227.04
2018-09-22T00:44:14.457Z,46217.36
2018-09-22T00:46:19.191Z,46226.07
2018-09-22T00:48:24.018Z,46214.46
2018-09-22T00:50:28.793Z,46239.62
2018-09-22T00:52:33.582Z,46223.17
2018-09-22T00:54:38.530Z,46228.01
2018-09-22T00:56:43.326Z,46214.46
2018-09-22T00:58:48.154Z,46234.78
2018-09-22T01:00:52.966Z,46236.71
2018-09-22T01:02:57.623Z,46212.52
2018-09-22T01:05:02.518Z,46212.52
2018-09-22T01:07:07.349Z,46224.13
2018-09-22T01:09:12.165Z,46197.04
2018-09-22T01:11:16.854Z,46226.07
2018-09-22T01:13:21.746Z,46199.94
2018-09-22T01:15:26.469Z,46222.20
2018-09-22T01:17:31.217Z,46198.00
2018-09-22T01:19:35.907Z,46206.71
2018-09-22T01:21:40.746Z,46200.91
2018-09-22T01:23:45.554Z,46205.75
2018-09-22T01:25:50.358Z,46198.97
2018-09-22T01:27:55.202Z,46215.43
2018-09-22T01:29:59.933Z,46221.23
2018-09-22T01:32:04.864Z,46202.84
2018-09-22T01:34:09.654Z,46220.26
2018-09-22T01:36:14.427Z,46248.33
2018-09-22T01:38:19.215Z,46208.65
2018-09-22T01:40:24.199Z,46213.49
2018-09-22T01:42:29.010Z,46196.07
2018-09-22T01:44:33.677Z,46218.33
2018-09-22T01:46:38.453Z,46180.59
2018-09-22T01:48:43.130Z,46213.49
2018-09-22T01:50:47.812Z,46208.65
2018-09-22T01:52:52.659Z,46213.49
2018-09-22T01:54:57.403Z,46221.23
2018-09-22T01:57:02.105Z,46186.39
2018-09-22T01:59:06.813Z,46211.55
2018-09-22T02:01:11.615Z,46213.49
2018-09-22T02:03:16.368Z,46195.10
2018-09-22T02:05:21.270Z,46195.10
2018-09-22T02:07:25.976Z,46218.33
2018-09-22T02:09:30.749Z,46216.39
2018-09-22T02:11:35.521Z,46198.00
2018-09-22T02:13:40.339Z,46198.97
2018-09-22T02:15:45.390Z,46202.84
2018-09-22T02:17:50.098Z,46211.55
2018-09-22T02:19:54.790Z,46198.97
2018-09-22T02:21:59.637Z,46200.91
2018-09-22T02:24:04.285Z,46196.07
2018-09-22T02:26:09.207Z,46219.30
2018-09-22T02:28:14.021Z,46216.39
2018-09-22T02:30:18.895Z,46205.75
2018-09-22T02:32:23.830Z,46212.52
2018-09-22T02:34:28.644Z,46186.39
2018-09-22T02:36:33.460Z,46182.52
2018-09-22T02:38:38.170Z,46207.68
2018-09-22T02:40:42.931Z,46190.27
2018-09-22T02:42:47.589Z,46195.10
2018-09-22T02:44:52.378Z,46205.75
2018-09-22T02:46:57.118Z,46212.52
2018-09-22T02:49:01.897Z,46209.62
2018-09-22T02:51:07.519Z,46193.17
2018-09-22T02:53:12.502Z,46195.10
2018-09-22T02:55:17.231Z,46177.68
2018-09-22T02:57:22.034Z,46195.10
2018-09-22T02:59:26.868Z,46204.78
2018-09-22T03:01:31.642Z,46194.13
2018-09-22T03:03:36.502Z,46182.52
2018-09-22T03:05:41.558Z,46180.59
2018-09-22T03:07:46.286Z,46191.23
2018-09-22T03:09:51.189Z,46183.49
2018-09-22T03:11:56.103Z,46208.65
2018-09-22T03:14:00.894Z,46191.23
2018-09-22T03:16:05.830Z,46201.88
2018-09-22T03:18:10.765Z,46180.59
2018-09-22T03:20:15.511Z,46190.27
2018-09-22T03:22:20.143Z,46208.65
2018-09-22T03:24:25.095Z,46170.91
2018-09-22T03:26:29.998Z,46176.71
2018-09-22T03:28:34.652Z,46179.62
2018-09-22T03:30:39.379Z,46204.78
2018-09-22T03:34:46.397Z,46193.17
2018-09-22T03:36:51.345Z,46229.94
2018-09-22T03:38:56.083Z,46219.30
2018-09-22T03:41:01.145Z,46221.23
2018-09-22T03:43:06.123Z,46190.27
2018-09-22T03:45:10.866Z,46205.75
2018-09-22T03:47:15.544Z,46198.97
2018-09-22T03:49:20.399Z,46192.20
2018-09-22T03:51:25.137Z,46200.91
2018-09-22T03:53:30.602Z,46192.20
2018-09-22T03:55:35.315Z,46187.36
2018-09-22T03:57:40.078Z,46204.78
2018-09-22T03:59:45.004Z,46208.65
2018-09-22T04:01:49.838Z,46224.13
2018-09-22T04:03:54.565Z,46220.26
2018-09-22T04:05:59.439Z,46209.62
2018-09-22T04:08:04.871Z,46205.75
2018-09-22T04:10:09.571Z,46225.10
2018-09-22T04:12:14.357Z,46198.00
2018-09-22T04:14:19.061Z,46202.84
2018-09-22T04:16:23.784Z,46199.94
2018-09-22T04:18:28.495Z,46190.27
2018-09-22T04:20:33.201Z,46197.04
2018-09-22T04:22:37.920Z,46208.65
2018-09-22T04:24:42.637Z,46204.78
2018-09-22T04:26:48.814Z,46203.81
2018-09-22T04:28:53.523Z,46203.81
2018-09-22T04:30:58.450Z,46196.07
2018-09-22T04:33:03.331Z,46195.10
2018-09-22T04:35:08.182Z,46209.62
2018-09-22T04:37:13.146Z,46212.52
2018-09-22T04:39:18.018Z,46200.91
2018-09-22T04:41:22.911Z,46213.49
2018-09-22T04:43:27.646Z,46218.33
2018-09-22T04:45:32.542Z,46222.20
2018-09-22T04:47:37.254Z,46218.33
2018-09-22T04:49:42.060Z,46202.84
2018-09-22T04:51:46.802Z,46198.97
2018-09-22T04:53:51.749Z,46207.68
2018-09-22T04:55:56.574Z,46209.62
2018-09-22T04:58:01.404Z,46202.84
2018-09-22T05:00:06.938Z,46207.68
2018-09-22T05:02:11.753Z,46203.81
2018-09-22T05:04:16.607Z,46207.68
2018-09-22T05:06:21.596Z,46188.33
2018-09-22T05:08:26.340Z,46198.00
2018-09-22T05:10:31.158Z,46212.52
2018-09-22T05:12:36.087Z,46187.36
2018-09-22T05:14:40.861Z,46202.84
2018-09-22T05:16:45.848Z,46194.13
2018-09-22T05:18:50.643Z,46202.84
2018-09-22T05:20:55.522Z,46217.36
2018-09-22T05:23:01.461Z,46193.17
2018-09-22T05:25:06.524Z,46194.13
2018-09-22T05:27:11.427Z,46208.65
2018-09-22T05:29:17.283Z,46198.00
2018-09-22T05:31:22.235Z,46180.59
2018-09-22T05:33:27.161Z,46210.59
2018-09-22T05:35:31.936Z,46209.62
2018-09-22T05:37:36.706Z,46201.88
2018-09-22T05:39:41.499Z,46181.55
2018-09-22T05:41:47.295Z,46196.07
2018-09-22T05:43:52.216Z,46206.71
2018-09-22T05:45:58.110Z,46204.78
2018-09-22T05:48:03.031Z,46185.43
2018-09-22T05:50:07.927Z,46186.39
2018-09-22T05:52:12.995Z,46182.52
2018-09-22T05:54:18.033Z,46184.46
2018-09-22T05:56:22.903Z,46196.07
2018-09-22T05:58:27.691Z,46186.39
2018-09-22T06:00:36.808Z,46176.71
2018-09-22T06:02:42.047Z,46208.65
2018-09-22T06:04:46.999Z,46200.91
2018-09-22T06:06:52.710Z,46197.04
2018-09-22T06:08:57.486Z,46198.00
2018-09-22T06:11:03.073Z,46186.39
2018-09-22T06:13:08.107Z,46199.94
2018-09-22T06:15:13.251Z,46205.75
2018-09-22T06:17:18.116Z,46198.97
2018-09-22T06:19:23.490Z,46185.43
2018-09-22T06:21:28.609Z,46199.94
2018-09-22T06:23:33.625Z,46193.17
2018-09-22T06:25:38.988Z,46201.88
2018-09-22T06:27:44.007Z,46200.91
2018-09-22T06:29:49.020Z,46182.52
2018-09-22T06:31:53.940Z,46199.94
2018-09-22T06:33:58.669Z,46198.97
2018-09-22T06:36:04.793Z,46186.39
2018-09-22T06:38:10.765Z,46206.71
2018-09-22T06:40:15.884Z,46191.23
2018-09-22T06:42:21.060Z,46209.62
2018-09-22T06:44:29.448Z,46188.33
2018-09-22T06:46:34.540Z,46191.23
2018-09-22T06:48:39.411Z,46210.59
2018-09-22T06:50:44.325Z,46213.49
2018-09-22T06:52:49.397Z,46194.13
2018-09-22T06:54:54.328Z,46195.10
2018-09-22T06:57:00.908Z,46213.49
2018-09-22T06:59:06.232Z,46204.78
2018-09-22T07:01:11.258Z,46222.20
2018-09-22T07:03:16.174Z,46228.01
2018-09-22T07:05:21.132Z,46227.04
2018-09-22T07:07:26.053Z,46223.17
2018-09-22T07:09:30.921Z,46225.10
2018-09-22T07:11:35.790Z,46199.94
2018-09-22T07:13:40.860Z,46192.20
2018-09-22T07:15:45.620Z,46210.59
2018-09-22T07:17:50.408Z,46225.10
2018-09-22T07:19:55.234Z,46211.55
2018-09-22T07:22:05.314Z,46215.43
2018-09-22T07:24:10.268Z,46214.46
2018-09-22T07:26:15.132Z,46215.43
2018-09-22T07:28:20.213Z,46222.20
2018-09-22T07:30:25.095Z,46203.81
2018-09-22T07:32:30.172Z,46201.88
2018-09-22T07:34:34.924Z,46231.87
2018-09-22T07:36:40.248Z,46217.36
2018-09-22T07:38:45.160Z,46231.87
2018-09-22T07:40:50.246Z,46202.84
2018-09-22T07:42:55.030Z,46216.39
2018-09-22T07:45:00.650Z,46224.13
2018-09-22T07:47:05.605Z,46240.59
2018-09-22T07:49:10.600Z,46227.04
2018-09-22T07:51:15.444Z,46233.81
2018-09-22T07:53:20.394Z,46225.10
2018-09-22T07:55:25.228Z,46227.04
2018-09-22T07:57:30.422Z,46216.39
2018-09-22T07:59:35.559Z,46226.07
2018-09-22T08:01:40.564Z,46226.07
2018-09-22T08:03:46.109Z,46223.17
2018-09-22T08:05:51.042Z,46226.07
2018-09-22T08:07:55.972Z,46236.71
2018-09-22T08:10:00.793Z,46228.97
2018-09-22T08:12:05.707Z,46234.78
2018-09-22T08:14:10.717Z,46219.30
2018-09-22T08:16:15.563Z,46232.84
2018-09-22T08:18:20.529Z,46233.81
2018-09-22T08:20:25.365Z,46234.78
2018-09-22T08:22:30.345Z,46251.23
2018-09-22T08:24:35.074Z,46226.07
2018-09-22T08:26:40.230Z,46228.01
2018-09-22T08:28:45.387Z,46213.49
2018-09-22T08:30:50.372Z,46246.39
2018-09-22T08:32:55.151Z,46244.46
2018-09-22T08:34:59.934Z,46256.07
2018-09-22T08:37:05.124Z,46235.75
2018-09-22T08:39:11.707Z,46234.78
2018-09-22T08:41:16.492Z,46229.94
2018-09-22T08:43:21.434Z,46249.30
2018-09-22T08:45:26.393Z,46252.20
2018-09-22T08:47:31.779Z,46238.65
2018-09-22T08:49:36.887Z,46228.01
2018-09-22T08:51:41.620Z,46241.55
2018-09-22T08:53:46.397Z,46226.07
2018-09-22T08:55:51.239Z,46239.62
2018-09-22T08:57:56.095Z,46241.55
2018-09-22T09:00:00.793Z,46258.97
2018-09-22T09:02:05.612Z,46256.07
2018-09-22T09:04:10.425Z,46237.68
2018-09-22T09:06:15.318Z,46259.94
2018-09-22T09:08:20.273Z,46277.36
2018-09-22T09:10:25.200Z,46258.97
2018-09-22T09:12:30.124Z,46261.87
2018-09-22T09:14:35.027Z,46263.81
2018-09-22T09:16:39.802Z,46251.23
2018-09-22T09:18:44.595Z,46254.14
2018-09-22T09:20:49.394Z,46268.65
2018-09-22T09:22:54.181Z,46268.65
2018-09-22T09:24:59.146Z,46273.49
2018-09-22T09:27:04.161Z,46258.01
2018-09-22T09:29:08.930Z,46278.33
2018-09-22T09:31:13.734Z,46253.17
2018-09-22T09:33:18.779Z,46258.01
2018-09-22T09:35:23.589Z,46279.30
2018-09-22T09:37:28.613Z,46285.10
2018-09-22T09:39:33.422Z,46274.46
2018-09-22T09:41:38.129Z,46263.81
2018-09-22T09:43:43.034Z,46257.04
2018-09-22T09:45:47.802Z,46290.91
2018-09-22T09:47:52.643Z,46272.52
2018-09-22T09:49:57.687Z,46286.07
2018-09-22T09:52:02.480Z,46278.33
2018-09-22T09:54:08.005Z,46304.46
2018-09-22T09:56:12.836Z,46269.62
2018-09-22T09:58:17.749Z,46282.20
2018-09-22T10:00:27.687Z,46281.23
2018-09-22T10:02:32.418Z,46271.55
2018-09-22T10:04:37.306Z,46298.65
2018-09-22T10:06:42.143Z,46280.27
2018-09-22T10:08:46.925Z,46270.59
2018-09-22T10:10:51.739Z,46290.91
2018-09-22T10:12:56.593Z,46294.78
2018-09-22T10:15:01.738Z,46283.17
2018-09-22T10:17:06.570Z,46263.81
2018-09-22T10:19:11.403Z,46301.55
2018-09-22T10:21:16.124Z,46285.10
2018-09-22T10:23:21.009Z,46275.43
2018-09-22T10:25:26.068Z,46284.14
2018-09-22T10:27:30.849Z,46288.97
2018-09-22T10:29:35.761Z,46268.65
2018-09-22T10:31:40.688Z,46280.27
2018-09-22T10:33:45.618Z,46278.33
2018-09-22T10:35:50.492Z,46295.75
2018-09-22T10:37:55.425Z,46297.68
2018-09-22T10:40:00.373Z,46286.07
2018-09-22T10:42:05.554Z,46311.23
2018-09-22T10:44:10.364Z,46285.10
2018-09-22T10:46:15.225Z,46291.88
2018-09-22T10:48:19.989Z,46287.04
2018-09-22T10:50:24.914Z,46305.43
2018-09-22T10:52:29.795Z,46288.01
2018-09-22T10:54:34.594Z,46296.72
2018-09-22T10:56:39.403Z,46316.07
2018-09-22T10:58:44.323Z,46309.30
2018-09-22T11:00:49.185Z,46301.55
2018-09-22T11:02:54.276Z,46280.27
2018-09-22T11:04:59.190Z,46315.11
2018-09-22T11:07:04.176Z,46289.94
2018-09-22T11:09:09.055Z,46287.04
2018-09-22T11:11:13.963Z,46302.52
2018-09-22T11:13:18.800Z,46319.94
2018-09-22T11:15:24.012Z,46315.11
2018-09-22T11:17:29.154Z,46300.59
2018-09-22T11:19:33.957Z,46298.65
2018-09-22T11:21:38.734Z,46304.46
2018-09-22T11:23:43.527Z,46297.68
2018-09-22T11:25:48.850Z,46311.23
2018-09-22T11:27:53.652Z,46308.33
2018-09-22T11:29:58.552Z,46313.17
2018-09-22T11:32:03.432Z,46309.30
2018-09-22T11:34:08.474Z,46308.33
2018-09-22T11:36:13.269Z,46322.85
2018-09-22T11:38:18.352Z,46320.91
2018-09-22T11:40:23.285Z,46321.88
2018-09-22T11:42:28.019Z,46324.78
2018-09-22T11:44:32.825Z,46318.97
2018-09-22T11:46:37.754Z,46313.17
2018-09-22T11:48:42.773Z,46303.49
2018-09-22T11:50:48.050Z,46304.46
2018-09-22T11:52:53.029Z,46311.23
2018-09-22T11:54:59.200Z,46312.20
2018-09-22T11:57:04.384Z,46319.94
2018-09-22T11:59:09.191Z,46302.52
2018-09-22T12:01:15.506Z,46311.23
2018-09-22T12:03:20.395Z,46296.72
2018-09-22T12:05:25.299Z,46309.30
2018-09-22T12:07:30.163Z,46318.97
2018-09-22T12:09:35.063Z,46322.85
2018-09-22T12:11:40.608Z,46298.65
2018-09-22T12:13:45.701Z,46304.46
2018-09-22T12:15:50.633Z,46303.49
2018-09-22T12:17:57.640Z,46315.11
2018-09-22T12:20:02.408Z,46304.46
2018-09-22T12:22:07.189Z,46310.27
2018-09-22T12:24:11.863Z,46305.43
2018-09-22T12:26:16.598Z,46296.72
2018-09-22T12:28:21.392Z,46318.97
2018-09-22T12:30:26.092Z,46319.94
2018-09-22T12:32:30.769Z,46290.91
2018-09-22T12:34:35.410Z,46290.91
2018-09-22T12:36:40.200Z,46295.75
2018-09-22T12:38:45.058Z,46285.10
2018-09-22T12:40:49.959Z,46296.72
2018-09-22T12:42:54.869Z,46290.91
2018-09-22T12:44:59.890Z,46294.78
2018-09-22T12:47:04.881Z,46318.97
2018-09-22T12:49:09.829Z,46304.46
2018-09-22T12:51:14.495Z,46284.14
2018-09-22T12:53:19.314Z,46302.52
2018-09-22T12:55:24.323Z,46274.46
2018-09-22T12:57:29.321Z,46299.62
2018-09-22T12:59:34.427Z,46299.62
2018-09-22T13:01:39.314Z,46316.07
2018-09-22T13:03:44.395Z,46299.62
2018-09-22T13:05:49.282Z,46318.97
2018-09-22T13:07:54.117Z,46288.01
2018-09-22T13:09:58.969Z,46305.43
2018-09-22T13:12:03.804Z,46301.55
2018-09-22T13:14:08.639Z,46309.30
2018-09-22T13:16:13.391Z,46306.39
2018-09-22T13:18:18.223Z,46293.81
2018-09-22T13:20:23.201Z,46301.55
2018-09-22T13:22:28.034Z,46296.72
2018-09-22T13:24:32.906Z,46275.43
2018-09-22T13:26:37.904Z,46308.33
2018-09-22T13:28:42.717Z,46282.20
2018-09-22T13:30:47.578Z,46283.17
2018-09-22T13:32:52.335Z,46288.01
2018-09-22T13:34:58.175Z,46269.62
2018-09-22T13:37:03.099Z,46238.65
2018-09-22T13:39:12.124Z,46269.62
2018-09-22T13:41:17.106Z,46272.52
2018-09-22T13:43:22.102Z,46275.43
2018-09-22T13:45:27.026Z,46256.07
2018-09-22T13:47:31.804Z,46243.49
2018-09-22T13:49:36.695Z,46240.59
2018-09-22T13:51:41.572Z,46239.62
2018-09-22T13:53:46.524Z,46240.59
2018-09-22T13:55:52.181Z,46242.52
2018-09-22T13:57:57.163Z,46261.87
2018-09-22T14:00:02.282Z,46234.78
2018-09-22T14:02:07.124Z,46229.94
2018-09-22T14:04:11.939Z,46240.59
2018-09-22T14:06:16.918Z,46236.71
2018-09-22T14:08:21.794Z,46246.39
2018-09-22T14:10:26.750Z,46247.36
2018-09-22T14:12:31.618Z,46227.04
2018-09-22T14:14:36.337Z,46233.81
2018-09-22T14:16:41.149Z,46242.52
2018-09-22T14:18:46.295Z,46246.39
2018-09-22T14:20:51.060Z,46233.81
2018-09-22T14:22:55.801Z,46252.20
2018-09-22T14:25:00.676Z,46263.81
2018-09-22T14:27:05.736Z,46245.43
2018-09-22T14:29:10.472Z,46251.23
2018-09-22T14:31:15.460Z,46252.20
2018-09-22T14:33:20.382Z,46253.17
2018-09-22T14:35:25.059Z,46281.23
2018-09-22T14:37:29.971Z,46237.68
2018-09-22T14:39:34.853Z,46255.10
2018-09-22T14:41:39.725Z,46239.62
2018-09-22T14:43:44.592Z,46236.71
2018-09-22T14:45:50.364Z,46245.43
2018-09-22T14:47:55.205Z,46253.17
2018-09-22T14:50:00.018Z,46234.78
2018-09-22T14:52:05.135Z,46246.39
2018-09-22T14:54:10.141Z,46240.59
2018-09-22T14:56:15.086Z,46277.36
2018-09-22T14:58:20.222Z,46248.33
2018-09-22T15:00:25.243Z,46232.84
2018-09-22T15:02:30.159Z,46278.33
2018-09-22T15:04:35.079Z,46234.78
2018-09-22T15:06:41.002Z,46253.17
2018-09-22T15:08:46.370Z,46228.97
2018-09-22T15:10:51.422Z,46251.23
2018-09-22T15:12:56.472Z,46243.49
2018-09-22T15:15:01.582Z,46276.39
2018-09-22T15:17:06.670Z,46258.01
2018-09-22T15:19:11.615Z,46260.91
2018-09-22T15:21:16.680Z,46243.49
2018-09-22T15:23:21.962Z,46253.17
2018-09-22T15:25:27.067Z,46234.78
2018-09-22T15:27:31.869Z,46246.39
2018-09-22T15:29:36.701Z,46252.20
2018-09-22T15:31:41.493Z,46245.43
2018-09-22T15:33:46.535Z,46260.91
2018-09-22T15:35:51.273Z,46244.46
2018-09-22T15:37:56.229Z,46258.01
2018-09-22T15:40:01.049Z,46234.78
2018-09-22T15:42:06.048Z,46238.65
2018-09-22T15:44:11.037Z,46251.23
2018-09-22T15:46:15.945Z,46234.78
2018-09-22T15:48:21.136Z,46241.55
2018-09-22T15:50:26.134Z,46235.75
2018-09-22T15:52:31.152Z,46247.36
2018-09-22T15:54:36.217Z,46235.75
2018-09-22T15:56:41.060Z,46239.62
2018-09-22T15:58:45.888Z,46240.59
2018-09-22T16:00:51.007Z,46249.30
2018-09-22T16:02:56.075Z,46233.81
2018-09-22T16:05:00.996Z,46264.78
2018-09-22T16:07:06.110Z,46229.94
2018-09-22T16:09:11.263Z,46238.65
2018-09-22T16:11:16.793Z,46228.97
2018-09-22T16:13:21.871Z,46222.20
2018-09-22T16:15:26.961Z,46240.59
2018-09-22T16:17:31.781Z,46242.52
2018-09-22T16:19:36.818Z,46228.97
2018-09-22T16:21:41.819Z,46249.30
2018-09-22T16:23:46.950Z,46230.91
2018-09-22T16:25:52.681Z,46245.43
2018-09-22T16:27:58.819Z,46232.84
2018-09-22T16:30:03.988Z,46238.65
2018-09-22T16:32:09.197Z,46225.10
2018-09-22T16:34:13.985Z,46216.39
2018-09-22T16:36:19.323Z,46228.97
2018-09-22T16:38:24.569Z,46221.23
2018-09-22T16:40:29.343Z,46218.33
2018-09-22T16:42:34.612Z,46223.17
2018-09-22T16:44:39.503Z,46210.59
2018-09-22T16:46:44.439Z,46219.30
2018-09-22T16:48:49.536Z,46207.68
2018-09-22T16:50:54.638Z,46241.55
2018-09-22T16:52:59.489Z,46230.91
2018-09-22T16:55:04.597Z,46223.17
2018-09-22T16:57:09.800Z,46212.52
2018-09-22T16:59:15.129Z,46220.26
2018-09-22T17:01:20.120Z,46215.43
2018-09-22T17:03:25.024Z,46218.33
2018-09-22T17:05:30.512Z,46222.20
2018-09-22T17:07:35.455Z,46223.17
2018-09-22T17:09:40.494Z,46222.20
2018-09-22T17:11:45.388Z,46211.55
2018-09-22T17:13:50.572Z,46222.20
2018-09-22T17:15:55.820Z,46215.43
2018-09-22T17:18:00.811Z,46213.49
2018-09-22T17:20:06.062Z,46216.39
2018-09-22T17:22:11.020Z,46218.33
2018-09-22T17:24:15.975Z,46205.75
2018-09-22T17:26:21.020Z,46202.84
2018-09-22T17:28:25.965Z,46213.49
2018-09-22T17:30:30.810Z,46194.13
2018-09-22T17:32:35.877Z,46201.88
2018-09-22T17:34:40.887Z,46225.10
2018-09-22T17:36:45.893Z,46211.55
2018-09-22T17:38:50.857Z,46217.36
2018-09-22T17:40:55.773Z,46207.68
2018-09-22T17:43:00.888Z,46206.71
2018-09-22T17:45:07.047Z,46215.43
2018-09-22T17:47:12.102Z,46213.49
2018-09-22T17:49:16.930Z,46211.55
2018-09-22T17:51:21.769Z,46206.71
2018-09-22T17:53:26.566Z,46206.71
2018-09-22T17:55:31.661Z,46220.26
2018-09-22T17:57:36.512Z,46221.23
2018-09-22T17:59:41.501Z,46201.88
2018-09-22T18:01:46.442Z,46200.91
2018-09-22T18:03:51.277Z,46203.81
2018-09-22T18:05:56.419Z,46195.10
2018-09-22T18:08:01.496Z,46201.88
2018-09-22T18:10:06.698Z,46213.49
2018-09-22T18:12:11.830Z,46202.84
2018-09-22T18:14:16.824Z,46195.10
2018-09-22T18:16:21.701Z,46205.75
2018-09-22T18:18:27.100Z,46205.75
2018-09-22T18:20:32.051Z,46215.43
2018-09-22T18:22:36.891Z,46223.17
2018-09-22T18:24:42.014Z,46216.39
2018-09-22T18:26:46.893Z,46194.13
2018-09-22T18:28:51.705Z,46206.71
2018-09-22T18:30:56.707Z,46207.68
2018-09-22T18:33:01.732Z,46212.52
2018-09-22T18:35:06.688Z,46206.71
2018-09-22T18:37:12.118Z,46210.59
2018-09-22T18:39:17.114Z,46191.23
2018-09-22T18:41:22.095Z,46227.04
2018-09-22T18:43:27.703Z,46198.97
2018-09-22T18:45:33.216Z,46197.04
2018-09-22T18:47:38.546Z,46193.17
2018-09-22T18:49:43.676Z,46213.49
2018-09-22T18:51:48.896Z,46198.97
2018-09-22T18:53:54.311Z,46201.88
2018-09-22T18:55:59.484Z,46199.94
2018-09-22T18:58:04.911Z,46194.13
2018-09-22T19:00:09.888Z,46209.62
2018-09-22T19:02:15.046Z,46198.97
2018-09-22T19:04:20.136Z,46185.43
2018-09-22T19:06:25.170Z,46190.27
2018-09-22T19:08:30.112Z,46204.78
2018-09-22T19:10:35.235Z,46207.68
2018-09-22T19:12:40.573Z,46215.43
2018-09-22T19:14:51.854Z,46190.27
2018-09-22T19:17:02.063Z,46199.94
2018-09-22T19:19:12.737Z,46198.97
2018-09-22T19:21:23.913Z,46189.30
2018-09-22T19:23:38.761Z,46187.36
2018-09-22T19:25:47.251Z,46198.00
2018-09-22T19:27:58.546Z,46191.23
2018-09-22T19:30:07.847Z,46191.23
2018-09-22T19:32:16.978Z,46191.23
2018-09-22T19:34:26.460Z,46201.88
2018-09-22T19:36:35.606Z,46191.23
2018-09-22T19:40:47.755Z,46211.55
2018-09-22T19:43:13.086Z,46198.00
2018-09-22T19:45:35.949Z,46196.07
2018-09-22T19:47:47.106Z,46190.27
2018-09-22T19:50:00.887Z,46179.62
2018-09-22T19:52:11.613Z,46186.39
2018-09-22T19:54:17.132Z,46181.55
2018-09-22T19:56:22.334Z,46196.07
2018-09-22T19:58:27.357Z,46180.59
2018-09-22T20:00:36.200Z,46186.39
2018-09-22T20:02:42.166Z,46182.52
2018-09-22T20:04:47.132Z,46184.46
2018-09-22T20:06:53.698Z,46200.91
2018-09-22T20:08:59.758Z,46203.81
2018-09-22T20:11:06.694Z,46183.49
2018-09-22T20:13:16.497Z,46190.27
2018-09-22T20:15:22.935Z,46189.30
2018-09-22T20:17:28.229Z,46181.55
2018-09-22T20:19:33.431Z,46188.33
2018-09-22T20:21:38.638Z,46198.97
2018-09-22T20:23:43.507Z,46182.52
2018-09-22T20:25:48.876Z,46193.17
2018-09-22T20:27:53.861Z,46199.94
2018-09-22T20:29:58.851Z,46184.46
2018-09-22T20:32:04.107Z,46199.94
2018-09-22T20:34:09.063Z,46199.94
2018-09-22T20:36:14.093Z,46204.78
2018-09-22T20:38:19.031Z,46211.55
2018-09-22T20:40:23.840Z,46174.78
2018-09-22T20:42:50.222Z,46183.49
2018-09-22T20:44:55.433Z,46177.68
2018-09-22T20:47:00.574Z,46194.13
2018-09-22T20:49:05.530Z,46191.23
2018-09-22T20:51:10.443Z,46179.62
2018-09-22T20:53:15.428Z,46175.75
2018-09-22T20:55:21.477Z,46186.39
2018-09-22T20:57:26.630Z,46191.23
2018-09-22T20:59:31.603Z,46188.33
2018-09-22T21:01:36.545Z,46187.36
2018-09-22T21:03:41.221Z,46170.91
2018-09-22T21:05:46.115Z,46190.27
2018-09-22T21:07:51.011Z,46161.23
2018-09-22T21:09:55.798Z,46195.10
2018-09-22T21:12:00.623Z,46171.87
2018-09-22T21:14:05.856Z,46168.97
2018-09-22T21:16:10.779Z,46191.23
2018-09-22T21:18:15.849Z,46174.78
2018-09-22T21:20:20.645Z,46179.62
2018-09-22T21:22:25.689Z,46171.87
2018-09-22T21:24:30.840Z,46163.17
2018-09-22T21:26:35.814Z,46198.97
2018-09-22T21:28:40.679Z,46191.23
2018-09-22T21:30:45.945Z,46190.27
2018-09-22T21:32:50.557Z,46175.75
2018-09-22T21:34:55.405Z,46183.49
2018-09-22T21:37:00.328Z,46186.39
2018-09-22T21:39:07.445Z,46193.17
2018-09-22T21:41:12.294Z,46168.97
2018-09-22T21:43:17.216Z,46178.65
2018-09-22T21:45:22.064Z,46173.81
2018-09-22T21:47:26.965Z,46179.62
2018-09-22T21:49:32.154Z,46195.10
2018-09-22T21:51:37.078Z,46198.00
2018-09-22T21:53:42.034Z,46176.71
2018-09-22T21:55:47.068Z,46176.71
2018-09-22T21:57:51.921Z,46168.97
2018-09-22T21:59:56.853Z,46176.71
2018-09-22T22:02:01.698Z,46180.59
2018-09-22T22:04:06.874Z,46170.91
2018-09-22T22:06:11.753Z,46179.62
2018-09-22T22:08:16.833Z,46182.52
2018-09-22T22:10:21.837Z,46177.68
2018-09-22T22:12:26.621Z,46159.30
2018-09-22T22:14:31.450Z,46181.55
2018-09-22T22:16:36.332Z,46175.75
2018-09-22T22:18:41.063Z,46172.84
2018-09-22T22:20:46.009Z,46168.97
2018-09-22T22:22:50.880Z,46172.84
2018-09-22T22:24:55.945Z,46188.33
2018-09-22T22:27:01.179Z,46187.36
2018-09-22T22:29:06.254Z,46185.43
2018-09-22T22:31:11.240Z,46196.07
2018-09-22T22:33:16.156Z,46183.49
2018-09-22T22:35:21.108Z,46166.07
2018-09-22T22:37:25.992Z,46197.04
2018-09-22T22:39:31.922Z,46182.52
2018-09-22T22:41:36.867Z,46171.87
2018-09-22T22:43:41.958Z,46174.78
2018-09-22T22:45:46.903Z,46187.36
2018-09-22T22:47:52.108Z,46187.36
2018-09-22T22:49:57.068Z,46187.36
2018-09-22T22:52:01.991Z,46197.04
2018-09-22T22:54:06.978Z,46178.65
2018-09-22T22:56:11.889Z,46163.17
2018-09-22T22:58:16.825Z,46191.23
2018-09-22T23:00:21.578Z,46182.52
2018-09-22T23:02:26.769Z,46187.36
2018-09-22T23:04:31.605Z,46189.30
2018-09-22T23:06:36.399Z,46174.78
2018-09-22T23:08:41.376Z,46173.81
2018-09-22T23:10:46.177Z,46166.07
2018-09-22T23:12:51.493Z,46179.62
2018-09-22T23:14:56.667Z,46176.71
2018-09-22T23:17:01.619Z,46182.52
2018-09-22T23:19:06.476Z,46173.81
2018-09-22T23:21:11.326Z,46185.43
2018-09-22T23:23:16.355Z,46183.49
2018-09-22T23:25:21.126Z,46167.04
2018-09-22T23:27:27.672Z,46165.10
2018-09-22T23:29:32.452Z,46173.81
2018-09-22T23:31:37.260Z,46208.65
2018-09-22T23:33:42.178Z,46170.91
2018-09-22T23:35:46.968Z,46181.55
2018-09-22T23:37:51.792Z,46173.81
2018-09-22T23:39:57.037Z,46172.84
2018-09-22T23:42:01.851Z,46170.91
2018-09-22T23:44:06.994Z,46176.71
2018-09-22T23:46:11.818Z,46186.39
2018-09-22T23:48:16.857Z,46177.68
2018-09-22T23:50:22.222Z,46174.78
2018-09-22T23:52:27.114Z,46177.68
2018-09-22T23:54:32.038Z,46172.84
2018-09-22T23:56:36.899Z,46190.27
2018-09-22T23:58:41.774Z,46169.94
